createdAt,value
2022-07-27T00:01:10.234Z,102544.16
2022-07-27T00:03:39.965Z,102543.41
2022-07-27T00:06:08.387Z,102549.72
2022-07-27T00:08:36.540Z,102543.72
2022-07-27T00:11:04.828Z,102546.41
2022-07-27T00:13:33.609Z,102543.00
2022-07-27T00:16:01.954Z,102542.19
2022-07-27T00:18:30.057Z,102541.47
2022-07-27T00:20:59.575Z,102541.59
2022-07-27T00:23:27.612Z,102534.69
2022-07-27T00:25:55.634Z,102530.34
2022-07-27T00:28:23.673Z,102530.44
2022-07-27T00:30:51.794Z,102535.81
2022-07-27T00:33:19.834Z,102523.66
2022-07-27T00:35:47.895Z,102528.13
2022-07-27T00:38:17.654Z,102530.94
2022-07-27T00:40:45.743Z,102531.81
2022-07-27T00:43:14.046Z,102531.94
2022-07-27T00:45:42.173Z,102531.19
2022-07-27T00:48:10.289Z,102529.53
2022-07-27T00:50:39.487Z,102527.84
2022-07-27T00:53:07.663Z,102530.50
2022-07-27T00:55:37.724Z,102534.06
2022-07-27T00:58:08.763Z,102530.63
2022-07-27T01:00:38.012Z,102529.81
2022-07-27T01:03:08.823Z,102524.69
2022-07-27T01:05:42.970Z,102523.00
2022-07-27T01:08:14.755Z,102528.31
2022-07-27T01:10:45.527Z,102526.59
2022-07-27T01:13:14.553Z,102528.44
2022-07-27T01:15:43.981Z,102516.28
2022-07-27T01:18:13.885Z,102503.31
2022-07-27T01:20:43.267Z,102509.63
2022-07-27T01:23:12.754Z,102502.72
2022-07-27T01:25:43.567Z,102495.16
2022-07-27T01:28:11.580Z,102500.56
2022-07-27T01:30:39.607Z,102493.78
2022-07-27T01:33:09.499Z,102498.25
2022-07-27T01:35:38.769Z,102500.13
2022-07-27T01:38:07.714Z,102505.44
2022-07-27T01:40:37.716Z,102505.50
2022-07-27T01:43:06.318Z,102501.09
2022-07-27T01:45:34.340Z,102504.69
2022-07-27T01:48:02.567Z,102503.03
2022-07-27T01:50:31.724Z,102500.41
2022-07-27T01:52:59.726Z,102499.66
2022-07-27T01:55:30.301Z,102504.09
2022-07-27T01:58:09.240Z,102486.66
2022-07-27T02:00:37.862Z,102489.28
2022-07-27T02:03:07.073Z,102490.25
2022-07-27T02:05:35.392Z,102491.19
2022-07-27T02:08:03.719Z,102493.94
2022-07-27T02:10:32.233Z,102482.69
2022-07-27T02:12:59.338Z,102489.75
2022-07-27T02:15:43.073Z,102489.00
2022-07-27T02:18:29.346Z,102489.16
2022-07-27T02:21:00.600Z,102487.59
2022-07-27T02:23:28.630Z,102486.09
2022-07-27T02:25:56.993Z,102484.50
2022-07-27T02:28:25.012Z,102489.84
2022-07-27T02:30:54.370Z,102498.66
2022-07-27T02:33:22.438Z,102493.53
2022-07-27T02:35:52.049Z,102486.69
2022-07-27T02:38:20.366Z,102485.94
2022-07-27T02:40:48.409Z,102493.94
2022-07-27T02:43:16.465Z,102492.28
2022-07-27T02:45:46.471Z,102495.78
2022-07-27T02:48:16.291Z,102502.75
2022-07-27T02:50:44.372Z,102493.19
2022-07-27T02:53:12.454Z,102497.59
2022-07-27T02:55:40.523Z,102489.81
2022-07-27T02:58:08.537Z,102488.97
2022-07-27T03:00:36.542Z,102497.72
2022-07-27T03:03:04.662Z,102495.22
2022-07-27T03:05:34.562Z,102490.06
2022-07-27T03:08:04.155Z,102499.72
2022-07-27T03:10:32.454Z,102499.72
2022-07-27T03:13:00.607Z,102496.34
2022-07-27T03:15:29.700Z,102491.13
2022-07-27T03:17:58.130Z,102494.63
2022-07-27T03:20:26.340Z,102485.06
2022-07-27T03:22:55.976Z,102492.06
2022-07-27T03:25:24.420Z,102485.19
2022-07-27T03:27:52.617Z,102491.38
2022-07-27T03:30:20.966Z,102493.25
2022-07-27T03:32:49.427Z,102488.91
2022-07-27T03:35:17.497Z,102486.41
2022-07-27T03:37:47.839Z,102484.75
2022-07-27T03:40:17.822Z,102483.06
2022-07-27T03:42:46.567Z,102483.06
2022-07-27T03:45:14.608Z,102480.47
2022-07-27T03:47:42.564Z,102477.06
2022-07-27T03:50:10.911Z,102484.13
2022-07-27T03:52:39.151Z,102479.03
2022-07-27T03:55:08.285Z,102475.63
2022-07-27T03:57:37.879Z,102486.19
2022-07-27T04:00:06.992Z,102473.16
2022-07-27T04:02:35.017Z,102479.31
2022-07-27T04:05:03.054Z,102480.25
2022-07-27T04:07:31.109Z,102475.13
2022-07-27T04:09:59.165Z,102474.28
2022-07-27T04:12:27.214Z,102478.69
2022-07-27T04:14:56.632Z,102472.66
2022-07-27T04:17:54.763Z,102477.88
2022-07-27T04:20:13.056Z,102478.81
2022-07-27T04:22:42.911Z,102480.63
2022-07-27T04:25:12.180Z,102478.91
2022-07-27T04:27:40.259Z,102477.31
2022-07-27T04:30:11.023Z,102481.81
2022-07-27T04:32:39.100Z,102478.34
2022-07-27T04:35:08.777Z,102483.66
2022-07-27T04:37:36.778Z,102483.66
2022-07-27T04:40:07.203Z,102481.91
2022-07-27T04:42:35.272Z,102485.34
2022-07-27T04:45:03.978Z,102493.16
2022-07-27T04:47:33.407Z,102498.38
2022-07-27T04:50:01.467Z,102493.16
2022-07-27T04:52:29.462Z,102490.56
2022-07-27T04:54:57.472Z,102492.38
2022-07-27T04:57:25.500Z,102487.16
2022-07-27T04:59:53.443Z,102488.09
2022-07-27T05:02:21.587Z,102507.31
2022-07-27T05:04:50.955Z,102503.84
2022-07-27T05:07:19.220Z,102501.22
2022-07-27T05:09:47.454Z,102509.00
2022-07-27T05:12:15.450Z,102509.81
2022-07-27T05:14:43.421Z,102508.91
2022-07-27T05:17:11.416Z,102504.56
2022-07-27T05:19:40.535Z,102507.97
2022-07-27T05:22:10.777Z,102503.59
2022-07-27T05:24:38.790Z,102506.13
2022-07-27T05:27:07.164Z,102500.84
2022-07-27T05:29:35.205Z,102506.88
2022-07-27T05:32:03.228Z,102506.78
2022-07-27T05:34:31.241Z,102504.88
2022-07-27T05:36:59.225Z,102504.81
2022-07-27T05:39:28.622Z,102496.91
2022-07-27T05:41:56.754Z,102497.69
2022-07-27T05:44:24.719Z,102499.31
2022-07-27T05:46:52.811Z,102490.47
2022-07-27T05:49:21.542Z,102487.69
2022-07-27T05:51:49.983Z,102487.53
2022-07-27T05:54:18.503Z,102492.59
2022-07-27T05:56:48.257Z,102496.78
2022-07-27T05:59:16.234Z,102497.53
2022-07-27T06:01:44.238Z,102502.66
2022-07-27T06:04:14.801Z,102503.41
2022-07-27T06:07:00.164Z,102508.47
2022-07-27T06:09:28.298Z,102516.16
2022-07-27T06:11:57.651Z,102515.22
2022-07-27T06:14:25.627Z,102513.53
2022-07-27T06:16:53.632Z,102517.91
2022-07-27T06:19:21.776Z,102516.19
2022-07-27T06:21:53.620Z,102512.66
2022-07-27T06:24:21.896Z,102515.03
2022-07-27T06:26:49.919Z,102516.47
2022-07-27T06:29:19.297Z,102512.69
2022-07-27T06:31:47.619Z,102511.41
2022-07-27T06:34:15.832Z,102519.84
2022-07-27T06:36:45.311Z,102512.47
2022-07-27T06:39:14.377Z,102517.28
2022-07-27T06:41:42.646Z,102515.97
2022-07-27T06:44:10.619Z,102512.81
2022-07-27T06:46:40.010Z,102514.09
2022-07-27T06:49:08.160Z,102519.63
2022-07-27T06:51:36.984Z,102524.41
2022-07-27T06:54:05.426Z,102518.63
2022-07-27T06:56:33.488Z,102529.47
2022-07-27T06:59:01.605Z,102534.28
2022-07-27T07:01:30.039Z,102527.81
2022-07-27T07:04:00.064Z,102525.59
2022-07-27T07:06:28.931Z,102527.75
2022-07-27T07:08:56.958Z,102522.03
2022-07-27T07:11:25.026Z,102519.88
2022-07-27T07:13:53.073Z,102516.78
2022-07-27T07:16:21.151Z,102506.53
2022-07-27T07:18:52.538Z,102519.03
2022-07-27T07:21:22.363Z,102518.31
2022-07-27T07:23:50.388Z,102510.81
2022-07-27T07:26:18.406Z,102512.09
2022-07-27T07:28:46.490Z,102518.53
2022-07-27T07:31:14.708Z,102520.81
2022-07-27T07:33:42.759Z,102522.25
2022-07-27T07:36:14.508Z,102522.69
2022-07-27T07:38:44.706Z,102525.69
2022-07-27T07:41:13.716Z,102523.66
2022-07-27T07:43:42.386Z,102529.47
2022-07-27T07:46:10.672Z,102528.41
2022-07-27T07:48:40.104Z,102530.06
2022-07-27T07:51:08.156Z,102530.91
2022-07-27T07:53:41.098Z,102532.59
2022-07-27T07:56:11.552Z,102531.44
2022-07-27T07:58:39.682Z,102528.69
2022-07-27T08:01:07.813Z,102530.41
2022-07-27T08:03:35.826Z,102517.72
2022-07-27T08:06:03.880Z,102522.63
2022-07-27T08:08:31.986Z,102512.78
2022-07-27T08:11:00.097Z,102506.72
2022-07-27T08:13:29.586Z,102505.88
2022-07-27T08:15:57.681Z,102504.03
2022-07-27T08:18:25.780Z,102510.16
2022-07-27T08:20:53.768Z,102503.88
2022-07-27T08:23:22.044Z,102505.50
2022-07-27T08:25:50.306Z,102498.47
2022-07-27T08:28:18.342Z,102498.53
2022-07-27T08:30:49.339Z,102499.31
2022-07-27T08:33:17.666Z,102498.94
2022-07-27T08:35:46.827Z,102494.28
2022-07-27T08:38:14.958Z,102488.00
2022-07-27T08:40:45.819Z,102481.72
2022-07-27T08:43:23.991Z,102481.59
2022-07-27T08:46:00.457Z,102483.31
2022-07-27T08:48:31.037Z,102480.41
2022-07-27T08:50:59.263Z,102472.28
2022-07-27T08:53:52.417Z,102465.88
2022-07-27T08:56:16.100Z,102468.09
2022-07-27T08:58:45.567Z,102467.03
2022-07-27T09:01:15.261Z,102465.94
2022-07-27T09:03:43.435Z,102457.84
2022-07-27T09:06:11.562Z,102460.34
2022-07-27T09:08:41.874Z,102457.38
2022-07-27T09:11:16.633Z,102459.56
2022-07-27T09:13:44.832Z,102457.19
2022-07-27T09:16:19.319Z,102460.78
2022-07-27T09:18:48.969Z,102452.13
2022-07-27T09:21:19.230Z,102449.50
2022-07-27T09:23:49.169Z,102446.13
2022-07-27T09:26:31.696Z,102446.53
2022-07-27T09:29:02.738Z,102442.53
2022-07-27T09:31:32.663Z,102437.53
2022-07-27T09:34:02.694Z,102421.66
2022-07-27T09:36:31.966Z,102423.38
2022-07-27T09:39:03.516Z,102413.75
2022-07-27T09:41:42.715Z,102418.28
2022-07-27T09:47:00.452Z,102402.84
2022-07-27T09:49:31.762Z,102401.63
2022-07-27T09:52:02.202Z,102390.44
2022-07-27T09:54:44.287Z,102391.31
2022-07-27T09:57:12.564Z,102393.59
2022-07-27T09:59:41.086Z,102389.06
2022-07-27T10:02:13.454Z,102389.56
2022-07-27T10:04:41.903Z,102385.44
2022-07-27T10:07:13.484Z,102382.16
2022-07-27T10:09:43.231Z,102375.47
2022-07-27T10:12:11.575Z,102373.22
2022-07-27T10:14:39.671Z,102377.84
2022-07-27T10:17:12.978Z,102377.28
2022-07-27T10:19:46.932Z,102381.16
2022-07-27T10:22:15.101Z,102373.59
2022-07-27T10:24:43.685Z,102365.81
2022-07-27T10:27:22.485Z,102382.66
2022-07-27T10:29:52.169Z,102380.28
2022-07-27T10:32:31.177Z,102371.84
2022-07-27T10:35:02.149Z,102373.28
2022-07-27T10:37:31.382Z,102373.72
2022-07-27T10:40:17.845Z,102362.53
2022-07-27T10:42:51.961Z,102361.84
2022-07-27T10:45:22.785Z,102354.34
2022-07-27T10:47:52.499Z,102350.84
2022-07-27T10:50:33.457Z,102344.69
2022-07-27T10:53:07.543Z,102340.34
2022-07-27T10:55:52.227Z,102353.38
2022-07-27T10:58:48.174Z,102352.13
2022-07-27T11:01:18.489Z,102351.72
2022-07-27T11:03:57.147Z,102348.66
2022-07-27T11:06:42.170Z,102355.78
2022-07-27T11:10:02.256Z,102346.56
2022-07-27T11:12:11.307Z,102347.13
2022-07-27T11:14:49.970Z,102338.75
2022-07-27T11:20:09.714Z,102336.50
2022-07-27T11:25:29.250Z,102346.88
2022-07-27T11:27:57.186Z,102347.94
2022-07-27T11:30:27.343Z,102353.44
2022-07-27T11:32:56.449Z,102348.94
2022-07-27T11:35:25.094Z,102351.56
2022-07-27T11:38:08.072Z,102348.59
2022-07-27T11:40:56.423Z,102344.47
2022-07-27T11:43:36.973Z,102346.00
2022-07-27T11:46:21.307Z,102351.19
2022-07-27T11:49:06.697Z,102350.75
2022-07-27T11:51:35.887Z,102354.69
2022-07-27T11:54:07.316Z,102356.22
2022-07-27T11:56:37.978Z,102343.72
2022-07-27T11:59:16.966Z,102344.28
2022-07-27T12:01:48.054Z,102346.91
2022-07-27T12:04:19.491Z,102353.41
2022-07-27T12:06:49.966Z,102353.66
2022-07-27T12:09:19.540Z,102352.28
2022-07-27T12:11:53.990Z,102355.84
2022-07-27T12:14:29.595Z,102357.63
2022-07-27T12:17:12.171Z,102366.50
2022-07-27T12:19:40.902Z,102363.84
2022-07-27T12:22:09.831Z,102373.22
2022-07-27T12:24:40.714Z,102382.13
2022-07-27T12:27:13.433Z,102377.50
2022-07-27T12:30:05.771Z,102376.47
2022-07-27T12:32:35.932Z,102374.59
2022-07-27T12:35:21.450Z,102376.06
2022-07-27T12:37:49.667Z,102374.53
2022-07-27T12:40:20.155Z,102377.00
2022-07-27T12:42:57.538Z,102377.56
2022-07-27T12:45:31.416Z,102375.00
2022-07-27T12:48:11.121Z,102379.75
2022-07-27T12:50:41.623Z,102373.03
2022-07-27T12:53:10.737Z,102380.78
2022-07-27T12:55:41.175Z,102383.53
2022-07-27T12:58:10.849Z,102380.22
2022-07-27T13:00:39.628Z,102378.78
2022-07-27T13:03:08.560Z,102380.94
2022-07-27T13:05:37.033Z,102377.50
2022-07-27T13:08:06.853Z,102380.31
2022-07-27T13:10:36.468Z,102375.75
2022-07-27T13:13:06.403Z,102371.53
2022-07-27T13:15:34.493Z,102360.97
2022-07-27T13:18:02.893Z,102367.16
2022-07-27T13:20:30.978Z,102356.25
2022-07-27T13:22:58.999Z,102356.94
2022-07-27T13:25:26.963Z,102355.09
2022-07-27T13:27:55.260Z,102343.81
2022-07-27T13:30:25.279Z,102352.34
2022-07-27T13:32:53.345Z,102352.16
2022-07-27T13:35:21.407Z,102347.06
2022-07-27T13:37:49.819Z,102341.44
2022-07-27T13:40:18.257Z,102339.03
2022-07-27T13:42:46.430Z,102337.09
2022-07-27T13:45:14.409Z,102338.91
2022-07-27T13:47:44.276Z,102336.66
2022-07-27T13:50:19.062Z,102333.66
2022-07-27T13:52:48.977Z,102337.81
2022-07-27T13:55:17.736Z,102331.41
2022-07-27T13:57:47.156Z,102326.69
2022-07-27T14:00:16.323Z,102326.50
2022-07-27T14:02:46.174Z,102317.28
2022-07-27T14:05:16.038Z,102321.16
2022-07-27T14:07:48.274Z,102325.03
2022-07-27T14:10:41.640Z,102337.72
2022-07-27T14:13:11.627Z,102341.00
2022-07-27T14:15:50.706Z,102336.56
2022-07-27T14:18:24.353Z,102329.41
2022-07-27T14:20:52.381Z,102325.09
2022-07-27T14:23:21.069Z,102322.25
2022-07-27T14:25:49.328Z,102325.31
2022-07-27T14:28:17.415Z,102319.22
2022-07-27T14:30:45.672Z,102323.09
2022-07-27T14:33:13.652Z,102316.25
2022-07-27T14:35:43.410Z,102317.47
2022-07-27T14:38:12.250Z,102321.41
2022-07-27T14:40:41.325Z,102322.97
2022-07-27T14:43:10.243Z,102319.88
2022-07-27T14:45:43.916Z,102321.38
2022-07-27T14:48:18.698Z,102327.50
2022-07-27T14:50:52.509Z,102319.31
2022-07-27T14:53:20.707Z,102310.63
2022-07-27T14:55:48.809Z,102307.88
2022-07-27T14:58:17.049Z,102297.66
2022-07-27T15:00:45.221Z,102301.03
2022-07-27T15:03:14.718Z,102291.91
2022-07-27T15:05:49.185Z,102296.06
2022-07-27T15:08:20.409Z,102288.94
2022-07-27T15:10:49.296Z,102288.63
2022-07-27T15:13:18.230Z,102279.69
2022-07-27T15:15:48.848Z,102278.75
2022-07-27T15:18:19.421Z,102275.97
2022-07-27T15:20:47.538Z,102259.94
2022-07-27T15:23:15.935Z,102263.44
2022-07-27T15:25:45.700Z,102260.47
2022-07-27T15:28:13.734Z,102254.75
2022-07-27T15:30:41.976Z,102253.59
2022-07-27T15:33:10.341Z,102252.81
2022-07-27T15:35:38.347Z,102250.28
2022-07-27T15:38:06.470Z,102242.00
2022-07-27T15:40:41.728Z,102232.88
2022-07-27T15:43:14.474Z,102229.03
2022-07-27T15:45:43.908Z,102224.22
2022-07-27T15:48:12.863Z,102221.84
2022-07-27T15:50:42.691Z,102220.16
2022-07-27T15:53:12.081Z,102211.28
2022-07-27T15:55:40.274Z,102202.09
2022-07-27T15:58:08.769Z,102202.59
2022-07-27T16:00:41.230Z,102199.53
2022-07-27T16:03:10.243Z,102196.25
2022-07-27T16:05:39.223Z,102199.69
2022-07-27T16:08:13.249Z,102193.56
2022-07-27T16:10:43.298Z,102192.81
2022-07-27T16:13:13.163Z,102190.59
2022-07-27T16:16:00.907Z,102191.53
2022-07-27T16:18:29.355Z,102193.34
2022-07-27T16:20:57.402Z,102190.88
2022-07-27T16:23:25.673Z,102195.13
2022-07-27T16:26:06.923Z,102197.25
2022-07-27T16:28:38.715Z,102199.19
2022-07-27T16:31:11.540Z,102187.91
2022-07-27T16:33:40.192Z,102196.75
2022-07-27T16:36:09.105Z,102197.66
2022-07-27T16:38:37.259Z,102195.59
2022-07-27T16:41:07.442Z,102207.41
2022-07-27T16:43:38.297Z,102195.53
2022-07-27T16:46:12.283Z,102200.84
2022-07-27T16:48:42.405Z,102204.50
2022-07-27T16:51:12.798Z,102195.66
2022-07-27T16:53:42.476Z,102196.56
2022-07-27T16:56:11.448Z,102198.38
2022-07-27T16:58:40.344Z,102195.72
2022-07-27T17:01:09.175Z,102198.06
2022-07-27T17:03:38.711Z,102192.97
2022-07-27T17:06:07.476Z,102189.47
2022-07-27T17:08:36.755Z,102193.34
2022-07-27T17:11:06.424Z,102198.47
2022-07-27T17:13:35.348Z,102195.81
2022-07-27T17:16:04.020Z,102192.03
2022-07-27T17:18:39.499Z,102184.69
2022-07-27T17:21:12.775Z,102189.50
2022-07-27T17:23:41.959Z,102181.66
2022-07-27T17:26:11.315Z,102183.56
2022-07-27T17:28:40.533Z,102181.50
2022-07-27T17:31:11.219Z,102178.28
2022-07-27T17:33:39.441Z,102173.44
2022-07-27T17:36:14.952Z,102170.34
2022-07-27T17:38:44.039Z,102166.16
2022-07-27T17:45:02.515Z,102156.25
2022-07-27T17:47:30.524Z,102152.56
2022-07-27T17:49:59.104Z,102149.88
2022-07-27T17:52:28.606Z,102155.16
2022-07-27T17:54:56.794Z,102150.97
2022-07-27T17:57:24.844Z,102147.84
2022-07-27T17:59:52.915Z,102147.06
2022-07-27T18:02:21.020Z,102147.16
2022-07-27T18:04:49.155Z,102145.56
2022-07-27T18:07:17.181Z,102141.13
2022-07-27T18:09:46.558Z,102144.41
2022-07-27T18:12:14.563Z,102143.13
2022-07-27T18:15:03.688Z,102144.66
2022-07-27T18:17:31.693Z,102143.53
2022-07-27T18:19:59.676Z,102146.66
2022-07-27T18:22:27.799Z,102153.09
2022-07-27T18:24:57.835Z,102160.16
2022-07-27T18:27:27.217Z,102157.06
2022-07-27T18:29:55.239Z,102157.31
2022-07-27T18:32:23.550Z,102157.78
2022-07-27T18:34:51.756Z,102149.00
2022-07-27T18:37:19.819Z,102150.91
2022-07-27T18:39:47.819Z,102153.56
2022-07-27T18:42:17.260Z,102151.09
2022-07-27T18:44:45.496Z,102148.81
2022-07-27T18:47:13.514Z,102147.91
2022-07-27T18:49:41.966Z,102145.25
2022-07-27T18:52:10.254Z,102149.69
2022-07-27T18:54:38.376Z,102151.97
2022-07-27T18:57:07.041Z,102154.50
2022-07-27T18:59:38.177Z,102161.53
2022-07-27T19:02:09.696Z,102152.47
2022-07-27T19:04:38.225Z,102158.25
2022-07-27T19:07:09.409Z,102150.03
2022-07-27T19:09:37.650Z,102157.63
2022-07-27T19:12:09.685Z,102155.44
2022-07-27T19:14:40.237Z,102155.88
2022-07-27T19:17:10.784Z,102158.78
2022-07-27T19:19:43.493Z,102157.31
2022-07-27T19:22:11.645Z,102155.75
2022-07-27T19:24:39.750Z,102155.16
2022-07-27T19:27:07.749Z,102166.78
2022-07-27T19:29:35.787Z,102163.41
2022-07-27T19:32:07.411Z,102166.13
2022-07-27T19:34:35.470Z,102167.22
2022-07-27T19:37:03.570Z,102168.34
2022-07-27T19:39:59.946Z,102165.78
2022-07-27T19:42:22.517Z,102164.25
2022-07-27T19:44:50.622Z,102162.63
2022-07-27T19:47:20.472Z,102158.47
2022-07-27T19:49:50.068Z,102169.16
2022-07-27T19:52:18.256Z,102164.91
2022-07-27T19:54:46.655Z,102165.22
2022-07-27T19:57:14.769Z,102173.31
2022-07-27T19:59:56.468Z,102179.69
2022-07-27T20:02:26.617Z,102179.06
2022-07-27T20:04:54.623Z,102182.72
2022-07-27T20:07:22.634Z,102187.28
2022-07-27T20:09:50.681Z,102179.66
2022-07-27T20:12:19.002Z,102187.69
2022-07-27T20:14:47.220Z,102195.84
2022-07-27T20:17:15.451Z,102192.56
2022-07-27T20:19:47.168Z,102191.97
2022-07-27T20:22:15.183Z,102201.84
2022-07-27T20:24:43.144Z,102201.13
2022-07-27T20:27:11.176Z,102205.69
2022-07-27T20:29:40.210Z,102205.91
2022-07-27T20:32:08.574Z,102207.81
2022-07-27T20:34:36.561Z,102206.28
2022-07-27T20:37:05.951Z,102211.75
2022-07-27T20:39:34.166Z,102209.47
2022-07-27T20:42:02.953Z,102213.16
2022-07-27T20:44:31.623Z,102213.31
2022-07-27T20:46:59.771Z,102215.19
2022-07-27T20:49:27.817Z,102214.41
2022-07-27T20:51:55.843Z,102212.69
2022-07-27T20:54:29.532Z,102218.03
2022-07-27T20:56:57.825Z,102218.88
2022-07-27T20:59:26.062Z,102219.81
2022-07-27T21:01:54.933Z,102222.44
2022-07-27T21:04:24.176Z,102215.47
2022-07-27T21:06:53.946Z,102217.19
2022-07-27T21:09:21.984Z,102218.03
2022-07-27T21:11:52.178Z,102225.13
2022-07-27T21:14:20.227Z,102222.59
2022-07-27T21:16:48.497Z,102221.03
2022-07-27T21:19:20.990Z,102216.78
2022-07-27T21:21:49.003Z,102212.50
2022-07-27T21:24:18.413Z,102213.59
2022-07-27T21:26:49.001Z,102215.44
2022-07-27T21:29:19.559Z,102220.06
2022-07-27T21:31:49.354Z,102214.13
2022-07-27T21:34:20.433Z,102218.69
2022-07-27T21:36:49.246Z,102215.41
2022-07-27T21:39:19.077Z,102219.06
2022-07-27T21:41:47.305Z,102217.41
2022-07-27T21:44:15.678Z,102219.34
2022-07-27T21:46:45.390Z,102220.34
2022-07-27T21:49:14.283Z,102213.50
2022-07-27T21:51:42.423Z,102213.72
2022-07-27T21:54:10.812Z,102216.59
2022-07-27T21:56:41.060Z,102213.16
2022-07-27T21:59:10.530Z,102214.16
2022-07-27T22:01:38.654Z,102211.59
2022-07-27T22:04:10.017Z,102216.13
2022-07-27T22:06:38.843Z,102212.78
2022-07-27T22:09:07.421Z,102215.41
2022-07-27T22:11:35.500Z,102215.56
2022-07-27T22:14:03.978Z,102206.88
2022-07-27T22:16:32.081Z,102211.44
2022-07-27T22:19:00.101Z,102221.22
2022-07-27T22:21:31.553Z,102216.97
2022-07-27T22:23:59.519Z,102215.38
2022-07-27T22:26:27.974Z,102219.94
2022-07-27T22:28:56.036Z,102212.13
2022-07-27T22:31:24.354Z,102210.47
2022-07-27T22:33:52.793Z,102218.50
2022-07-27T22:36:20.843Z,102216.94
2022-07-27T22:38:50.245Z,102214.47
2022-07-27T22:41:18.260Z,102211.97
2022-07-27T22:43:46.616Z,102217.34
2022-07-27T22:46:14.676Z,102213.09
2022-07-27T22:48:42.885Z,102212.31
2022-07-27T22:51:11.009Z,102215.94
2022-07-27T22:53:42.079Z,102223.84
2022-07-27T22:56:11.523Z,102224.84
2022-07-27T22:58:39.673Z,102224.06
2022-07-27T23:01:07.718Z,102219.84
2022-07-27T23:03:55.699Z,102216.53
2022-07-27T23:06:23.716Z,102224.47
2022-07-27T23:08:51.727Z,102228.94
2022-07-27T23:11:21.132Z,102218.56
2022-07-27T23:13:49.104Z,102222.16
2022-07-27T23:16:17.214Z,102229.31
2022-07-27T23:18:45.239Z,102224.16
2022-07-27T23:21:13.180Z,102218.16
2022-07-27T23:23:51.040Z,102222.63
2022-07-27T23:26:26.226Z,102211.41
2022-07-27T23:28:54.509Z,102211.53
2022-07-27T23:31:22.527Z,102215.13
2022-07-27T23:33:51.486Z,102219.63
2022-07-27T23:36:19.550Z,102213.59
2022-07-27T23:38:47.681Z,102224.13
2022-07-27T23:41:16.725Z,102217.25
2022-07-27T23:43:46.543Z,102212.13
2022-07-27T23:46:14.612Z,102207.81
2022-07-27T23:48:42.875Z,102209.56
2022-07-27T23:51:16.364Z,102210.47
2022-07-27T23:53:44.353Z,102204.44
2022-07-27T23:56:12.402Z,102200.97
2022-07-27T23:58:40.414Z,102203.66
